sensor_id;sensor_type;location;lat;lon;timestamp;pressure;altitude;pressure_sealevel;temperature;humidity
74466;BME280;62916;50.044;15.938;2023-04-19T00:00:18;99557.45;;;19.07;57.17
74466;BME280;62916;50.044;15.938;2023-04-19T00:02:50;99558.39;;;19.08;57.19
74466;BME280;62916;50.044;15.938;2023-04-19T00:05:23;99557.17;;;19.07;57.24
74466;BME280;62916;50.044;15.938;2023-04-19T00:07:54;99553.28;;;19.07;57.14
74466;BME280;62916;50.044;15.938;2023-04-19T00:10:26;99547.22;;;19.06;57.27
74466;BME280;62916;50.044;15.938;2023-04-19T00:12:56;99541.48;;;19.07;57.33
74466;BME280;62916;50.044;15.938;2023-04-19T00:15:27;99537.33;;;19.05;57.07
74466;BME280;62916;50.044;15.938;2023-04-19T00:17:58;99537.48;;;19.07;57.26
74466;BME280;62916;50.044;15.938;2023-04-19T00:20:30;99534.96;;;19.06;57.25
74466;BME280;62916;50.044;15.938;2023-04-19T00:23:01;99534.40;;;19.06;57.25
74466;BME280;62916;50.044;15.938;2023-04-19T00:25:32;99531.84;;;19.04;57.27
74466;BME280;62916;50.044;15.938;2023-04-19T00:28:03;99527.36;;;19.03;57.30
74466;BME280;62916;50.044;15.938;2023-04-19T00:30:34;99523.84;;;19.02;57.27
74466;BME280;62916;50.044;15.938;2023-04-19T00:33:05;99515.87;;;19.02;57.39
74466;BME280;62916;50.044;15.938;2023-04-19T00:35:41;99513.79;;;19.01;57.41
74466;BME280;62916;50.044;15.938;2023-04-19T00:38:12;99511.83;;;19.00;57.48
74466;BME280;62916;50.044;15.938;2023-04-19T00:40:43;99507.89;;;19.00;57.56
74466;BME280;62916;50.044;15.938;2023-04-19T00:43:18;99502.45;;;18.99;57.51
74466;BME280;62916;50.044;15.938;2023-04-19T00:45:49;99501.04;;;19.00;57.66
74466;BME280;62916;50.044;15.938;2023-04-19T00:48:21;99497.67;;;19.00;57.52
74466;BME280;62916;50.044;15.938;2023-04-19T00:50:52;99491.95;;;18.98;57.57
74466;BME280;62916;50.044;15.938;2023-04-19T00:53:23;99491.90;;;18.98;57.62
74466;BME280;62916;50.044;15.938;2023-04-19T00:55:56;99488.23;;;18.98;57.61
74466;BME280;62916;50.044;15.938;2023-04-19T00:58:29;99482.73;;;18.98;57.63
74466;BME280;62916;50.044;15.938;2023-04-19T01:01:01;99479.02;;;18.97;57.69
74466;BME280;62916;50.044;15.938;2023-04-19T01:03:32;99475.99;;;18.98;57.75
74466;BME280;62916;50.044;15.938;2023-04-19T01:06:03;99475.09;;;18.99;57.77
74466;BME280;62916;50.044;15.938;2023-04-19T01:08:34;99468.09;;;18.96;57.86
74466;BME280;62916;50.044;15.938;2023-04-19T01:11:05;99472.45;;;18.98;57.79
74466;BME280;62916;50.044;15.938;2023-04-19T01:13:36;99472.16;;;18.98;57.81
74466;BME280;62916;50.044;15.938;2023-04-19T01:16:08;99470.59;;;18.98;57.80
74466;BME280;62916;50.044;15.938;2023-04-19T01:18:38;99470.55;;;18.97;57.85
74466;BME280;62916;50.044;15.938;2023-04-19T01:21:09;99468.48;;;18.95;57.75
74466;BME280;62916;50.044;15.938;2023-04-19T01:23:41;99468.39;;;18.95;57.77
74466;BME280;62916;50.044;15.938;2023-04-19T01:26:12;99465.65;;;18.93;57.84
74466;BME280;62916;50.044;15.938;2023-04-19T01:28:43;99463.83;;;18.91;57.92
74466;BME280;62916;50.044;15.938;2023-04-19T01:31:13;99463.13;;;18.93;57.86
74466;BME280;62916;50.044;15.938;2023-04-19T01:33:44;99459.84;;;18.91;57.85
74466;BME280;62916;50.044;15.938;2023-04-19T01:36:15;99455.46;;;18.91;57.89
74466;BME280;62916;50.044;15.938;2023-04-19T01:38:46;99452.89;;;18.90;58.13
74466;BME280;62916;50.044;15.938;2023-04-19T01:41:17;99450.86;;;18.90;58.08
74466;BME280;62916;50.044;15.938;2023-04-19T01:43:48;99445.20;;;18.89;58.18
74466;BME280;62916;50.044;15.938;2023-04-19T01:46:19;99444.64;;;18.89;58.14
74466;BME280;62916;50.044;15.938;2023-04-19T01:48:50;99443.23;;;18.89;58.23
74466;BME280;62916;50.044;15.938;2023-04-19T01:51:21;99438.76;;;18.86;58.07
74466;BME280;62916;50.044;15.938;2023-04-19T01:53:52;99442.17;;;18.88;58.35
74466;BME280;62916;50.044;15.938;2023-04-19T01:56:23;99440.77;;;18.87;58.35
74466;BME280;62916;50.044;15.938;2023-04-19T01:58:54;99438.42;;;18.87;58.39
74466;BME280;62916;50.044;15.938;2023-04-19T02:01:25;99437.00;;;18.88;58.34
74466;BME280;62916;50.044;15.938;2023-04-19T02:03:56;99438.64;;;18.87;58.34
74466;BME280;62916;50.044;15.938;2023-04-19T02:06:27;99433.14;;;18.86;58.41
74466;BME280;62916;50.044;15.938;2023-04-19T02:08:57;99437.06;;;18.87;58.37
74466;BME280;62916;50.044;15.938;2023-04-19T02:11:28;99436.06;;;18.87;58.48
74466;BME280;62916;50.044;15.938;2023-04-19T02:13:59;99437.13;;;18.87;58.45
74466;BME280;62916;50.044;15.938;2023-04-19T02:16:30;99430.55;;;18.87;58.36
74466;BME280;62916;50.044;15.938;2023-04-19T02:19:04;99424.37;;;18.86;58.37
74466;BME280;62916;50.044;15.938;2023-04-19T02:21:34;99416.36;;;18.84;58.37
74466;BME280;62916;50.044;15.938;2023-04-19T02:24:06;99414.45;;;18.84;58.42
74466;BME280;62916;50.044;15.938;2023-04-19T02:26:37;99408.40;;;18.83;58.46
74466;BME280;62916;50.044;15.938;2023-04-19T02:29:08;99405.27;;;18.82;58.49
74466;BME280;62916;50.044;15.938;2023-04-19T02:31:39;99405.91;;;18.81;58.54
74466;BME280;62916;50.044;15.938;2023-04-19T02:34:10;99402.20;;;18.82;58.60
74466;BME280;62916;50.044;15.938;2023-04-19T02:36:41;99403.15;;;18.82;58.62
74466;BME280;62916;50.044;15.938;2023-04-19T02:39:12;99404.62;;;18.81;58.69
74466;BME280;62916;50.044;15.938;2023-04-19T02:41:43;99407.41;;;18.82;58.63
74466;BME280;62916;50.044;15.938;2023-04-19T02:44:13;99404.45;;;18.81;58.61
74466;BME280;62916;50.044;15.938;2023-04-19T02:46:50;99404.34;;;18.81;58.58
74466;BME280;62916;50.044;15.938;2023-04-19T02:49:21;99406.14;;;18.81;58.70
74466;BME280;62916;50.044;15.938;2023-04-19T02:51:52;99401.81;;;18.81;58.61
74466;BME280;62916;50.044;15.938;2023-04-19T02:54:23;99398.21;;;18.81;58.77
74466;BME280;62916;50.044;15.938;2023-04-19T02:56:54;99391.91;;;18.82;58.78
74466;BME280;62916;50.044;15.938;2023-04-19T02:59:25;99391.01;;;18.82;58.68
74466;BME280;62916;50.044;15.938;2023-04-19T03:01:56;99380.46;;;18.81;58.68
74466;BME280;62916;50.044;15.938;2023-04-19T03:04:26;99376.86;;;18.80;58.79
74466;BME280;62916;50.044;15.938;2023-04-19T03:06:57;99375.80;;;18.80;58.85
74466;BME280;62916;50.044;15.938;2023-04-19T03:09:28;99373.95;;;18.80;58.76
74466;BME280;62916;50.044;15.938;2023-04-19T03:11:59;99368.05;;;18.79;58.66
74466;BME280;62916;50.044;15.938;2023-04-19T03:14:31;99366.43;;;18.79;58.77
74466;BME280;62916;50.044;15.938;2023-04-19T03:17:02;99367.71;;;18.79;58.71
74466;BME280;62916;50.044;15.938;2023-04-19T03:19:33;99360.48;;;18.79;58.74
74466;BME280;62916;50.044;15.938;2023-04-19T03:22:04;99360.70;;;18.79;58.73
74466;BME280;62916;50.044;15.938;2023-04-19T03:24:35;99360.64;;;18.79;58.78
74466;BME280;62916;50.044;15.938;2023-04-19T03:27:06;99358.52;;;18.78;58.91
74466;BME280;62916;50.044;15.938;2023-04-19T03:29:37;99357.67;;;18.78;59.07
74466;BME280;62916;50.044;15.938;2023-04-19T03:32:09;99352.98;;;18.81;59.12
74466;BME280;62916;50.044;15.938;2023-04-19T03:34:40;99353.20;;;18.88;59.33
74466;BME280;62916;50.044;15.938;2023-04-19T03:37:10;99346.29;;;18.94;59.29
74466;BME280;62916;50.044;15.938;2023-04-19T03:39:41;99349.10;;;19.03;59.31
74466;BME280;62916;50.044;15.938;2023-04-19T03:42:12;99343.02;;;19.08;58.99
74466;BME280;62916;50.044;15.938;2023-04-19T03:44:43;99343.17;;;19.12;58.72
74466;BME280;62916;50.044;15.938;2023-04-19T03:47:14;99340.84;;;19.13;58.61
74466;BME280;62916;50.044;15.938;2023-04-19T03:49:44;99341.24;;;19.15;58.46
74466;BME280;62916;50.044;15.938;2023-04-19T03:52:16;99336.89;;;19.16;58.46
74466;BME280;62916;50.044;15.938;2023-04-19T03:54:47;99330.70;;;19.16;58.42
74466;BME280;62916;50.044;15.938;2023-04-19T03:57:18;99334.53;;;19.16;58.29
74466;BME280;62916;50.044;15.938;2023-04-19T03:59:49;99331.66;;;19.17;58.22
74466;BME280;62916;50.044;15.938;2023-04-19T04:02:20;99332.08;;;19.16;58.14
74466;BME280;62916;50.044;15.938;2023-04-19T04:04:55;99331.03;;;19.17;58.34
74466;BME280;62916;50.044;15.938;2023-04-19T04:07:26;99329.18;;;19.17;58.01
74466;BME280;62916;50.044;15.938;2023-04-19T04:09:56;99332.90;;;19.16;57.58
74466;BME280;62916;50.044;15.938;2023-04-19T04:12:27;99329.77;;;19.15;57.38
74466;BME280;62916;50.044;15.938;2023-04-19T04:14:58;99331.45;;;19.15;57.24
74466;BME280;62916;50.044;15.938;2023-04-19T04:17:29;99332.31;;;19.14;57.19
74466;BME280;62916;50.044;15.938;2023-04-19T04:20:00;99326.77;;;19.13;56.97
74466;BME280;62916;50.044;15.938;2023-04-19T04:22:31;99324.22;;;19.12;56.78
74466;BME280;62916;50.044;15.938;2023-04-19T04:25:02;99322.85;;;19.09;56.83
74466;BME280;62916;50.044;15.938;2023-04-19T04:27:33;99327.39;;;19.10;56.81
74466;BME280;62916;50.044;15.938;2023-04-19T04:30:05;99322.39;;;19.10;56.75
74466;BME280;62916;50.044;15.938;2023-04-19T04:32:37;99325.85;;;19.11;57.06
74466;BME280;62916;50.044;15.938;2023-04-19T04:35:11;99326.27;;;19.10;57.06
74466;BME280;62916;50.044;15.938;2023-04-19T04:37:42;99318.11;;;19.09;57.16
74466;BME280;62916;50.044;15.938;2023-04-19T04:40:13;99315.52;;;19.10;57.27
74466;BME280;62916;50.044;15.938;2023-04-19T04:42:44;99316.91;;;19.12;57.23
74466;BME280;62916;50.044;15.938;2023-04-19T04:45:15;99319.16;;;19.12;57.23
74466;BME280;62916;50.044;15.938;2023-04-19T04:47:47;99318.64;;;19.12;57.31
74466;BME280;62916;50.044;15.938;2023-04-19T04:50:18;99320.83;;;19.13;57.34
74466;BME280;62916;50.044;15.938;2023-04-19T04:52:49;99324.33;;;19.12;56.99
74466;BME280;62916;50.044;15.938;2023-04-19T04:55:20;99320.71;;;19.12;57.11
74466;BME280;62916;50.044;15.938;2023-04-19T04:57:51;99319.14;;;19.12;57.29
74466;BME280;62916;50.044;15.938;2023-04-19T05:00:23;99321.36;;;19.11;57.30
74466;BME280;62916;50.044;15.938;2023-04-19T05:02:54;99326.59;;;19.10;57.34
74466;BME280;62916;50.044;15.938;2023-04-19T05:05:25;99329.29;;;19.11;57.43
74466;BME280;62916;50.044;15.938;2023-04-19T05:07:56;99329.29;;;19.11;57.43
74466;BME280;62916;50.044;15.938;2023-04-19T05:10:27;99330.30;;;19.11;57.42
74466;BME280;62916;50.044;15.938;2023-04-19T05:12:59;99323.55;;;19.11;57.39
74466;BME280;62916;50.044;15.938;2023-04-19T05:15:30;99323.27;;;19.11;57.30
74466;BME280;62916;50.044;15.938;2023-04-19T05:18:01;99328.20;;;19.09;57.41
74466;BME280;62916;50.044;15.938;2023-04-19T05:20:32;99331.98;;;19.10;57.42
74466;BME280;62916;50.044;15.938;2023-04-19T05:23:03;99329.69;;;19.10;57.42
74466;BME280;62916;50.044;15.938;2023-04-19T05:25:34;99328.41;;;19.09;57.27
74466;BME280;62916;50.044;15.938;2023-04-19T05:28:05;99325.19;;;19.07;57.18
74466;BME280;62916;50.044;15.938;2023-04-19T05:30:36;99316.81;;;19.05;57.35
74466;BME280;62916;50.044;15.938;2023-04-19T05:33:07;99321.73;;;19.04;57.15
74466;BME280;62916;50.044;15.938;2023-04-19T05:35:38;99318.50;;;19.03;57.13
74466;BME280;62916;50.044;15.938;2023-04-19T05:38:08;99315.75;;;19.02;57.12
74466;BME280;62916;50.044;15.938;2023-04-19T05:40:39;99314.80;;;19.02;57.17
74466;BME280;62916;50.044;15.938;2023-04-19T05:43:10;99313.18;;;19.04;57.18
74466;BME280;62916;50.044;15.938;2023-04-19T05:45:41;99311.29;;;19.07;57.15
74466;BME280;62916;50.044;15.938;2023-04-19T05:48:11;99313.05;;;19.09;57.13
74466;BME280;62916;50.044;15.938;2023-04-19T05:50:42;99312.80;;;19.11;57.17
74466;BME280;62916;50.044;15.938;2023-04-19T05:53:13;99316.00;;;19.14;57.23
74466;BME280;62916;50.044;15.938;2023-04-19T05:55:44;99317.30;;;19.17;57.19
74466;BME280;62916;50.044;15.938;2023-04-19T05:58:16;99318.63;;;19.19;57.19
74466;BME280;62916;50.044;15.938;2023-04-19T06:00:47;99316.04;;;19.23;57.17
74466;BME280;62916;50.044;15.938;2023-04-19T06:03:18;99315.75;;;19.26;57.25
74466;BME280;62916;50.044;15.938;2023-04-19T06:05:49;99318.43;;;19.31;57.17
74466;BME280;62916;50.044;15.938;2023-04-19T06:08:20;99316.95;;;19.34;57.10
74466;BME280;62916;50.044;15.938;2023-04-19T06:10:51;99314.32;;;19.37;57.10
74466;BME280;62916;50.044;15.938;2023-04-19T06:13:30;99311.06;;;19.41;57.02
74466;BME280;62916;50.044;15.938;2023-04-19T06:16:00;99309.55;;;19.43;57.04
74466;BME280;62916;50.044;15.938;2023-04-19T06:18:31;99311.63;;;19.46;56.91
74466;BME280;62916;50.044;15.938;2023-04-19T06:21:02;99309.42;;;19.49;56.94
74466;BME280;62916;50.044;15.938;2023-04-19T06:23:34;99304.83;;;19.52;56.97
74466;BME280;62916;50.044;15.938;2023-04-19T06:26:05;99304.84;;;19.54;56.99
74466;BME280;62916;50.044;15.938;2023-04-19T06:28:36;99301.84;;;19.57;56.87
74466;BME280;62916;50.044;15.938;2023-04-19T06:31:06;99301.07;;;19.60;56.89
74466;BME280;62916;50.044;15.938;2023-04-19T06:33:38;99296.36;;;19.63;56.85
74466;BME280;62916;50.044;15.938;2023-04-19T06:36:10;99296.77;;;19.64;56.86
74466;BME280;62916;50.044;15.938;2023-04-19T06:38:40;99294.95;;;19.67;56.80
74466;BME280;62916;50.044;15.938;2023-04-19T06:41:13;99286.88;;;19.69;56.74
74466;BME280;62916;50.044;15.938;2023-04-19T06:43:44;99286.58;;;19.73;56.77
74466;BME280;62916;50.044;15.938;2023-04-19T06:46:15;99294.44;;;19.76;56.78
74466;BME280;62916;50.044;15.938;2023-04-19T06:48:46;99293.66;;;19.79;56.74
74466;BME280;62916;50.044;15.938;2023-04-19T06:51:17;99290.85;;;19.82;56.72
74466;BME280;62916;50.044;15.938;2023-04-19T06:53:49;99287.61;;;19.84;56.63
74466;BME280;62916;50.044;15.938;2023-04-19T06:56:39;99298.08;;;19.89;56.75
74466;BME280;62916;50.044;15.938;2023-04-19T06:59:15;99301.47;;;19.92;56.74
74466;BME280;62916;50.044;15.938;2023-04-19T07:01:46;99301.25;;;19.95;56.56
74466;BME280;62916;50.044;15.938;2023-04-19T07:04:18;99303.41;;;19.98;56.68
74466;BME280;62916;50.044;15.938;2023-04-19T07:06:50;99301.64;;;20.00;56.60
74466;BME280;62916;50.044;15.938;2023-04-19T07:09:21;99301.95;;;20.01;56.58
74466;BME280;62916;50.044;15.938;2023-04-19T07:11:51;99300.40;;;20.03;56.48
74466;BME280;62916;50.044;15.938;2023-04-19T07:14:22;99297.61;;;20.06;56.50
74466;BME280;62916;50.044;15.938;2023-04-19T07:16:53;99290.84;;;20.07;56.39
74466;BME280;62916;50.044;15.938;2023-04-19T07:19:24;99287.95;;;20.08;56.41
74466;BME280;62916;50.044;15.938;2023-04-19T07:21:56;99287.04;;;20.09;56.41
74466;BME280;62916;50.044;15.938;2023-04-19T07:24:28;99288.99;;;20.09;56.44
74466;BME280;62916;50.044;15.938;2023-04-19T07:26:59;99287.35;;;20.10;56.42
74466;BME280;62916;50.044;15.938;2023-04-19T07:29:30;99283.54;;;20.12;56.39
74466;BME280;62916;50.044;15.938;2023-04-19T07:32:01;99282.16;;;20.13;56.42
74466;BME280;62916;50.044;15.938;2023-04-19T07:34:32;99279.28;;;20.15;56.29
74466;BME280;62916;50.044;15.938;2023-04-19T07:37:03;99278.41;;;20.17;56.29
74466;BME280;62916;50.044;15.938;2023-04-19T07:39:34;99276.73;;;20.18;56.22
74466;BME280;62916;50.044;15.938;2023-04-19T07:42:05;99273.88;;;20.21;56.22
74466;BME280;62916;50.044;15.938;2023-04-19T07:44:36;99275.05;;;20.21;56.14
74466;BME280;62916;50.044;15.938;2023-04-19T07:47:06;99278.19;;;20.23;56.14
74466;BME280;62916;50.044;15.938;2023-04-19T07:49:37;99267.34;;;20.24;56.14
74466;BME280;62916;50.044;15.938;2023-04-19T07:52:09;99267.05;;;20.27;56.21
74466;BME280;62916;50.044;15.938;2023-04-19T07:54:40;99265.50;;;20.28;56.23
74466;BME280;62916;50.044;15.938;2023-04-19T07:57:12;99266.45;;;20.29;56.11
74466;BME280;62916;50.044;15.938;2023-04-19T07:59:43;99265.81;;;20.29;56.08
74466;BME280;62916;50.044;15.938;2023-04-19T08:02:13;99259.06;;;20.29;56.21
74466;BME280;62916;50.044;15.938;2023-04-19T08:04:47;99261.32;;;20.32;56.14
74466;BME280;62916;50.044;15.938;2023-04-19T08:07:18;99262.31;;;20.32;56.03
74466;BME280;62916;50.044;15.938;2023-04-19T08:09:49;99262.31;;;20.32;56.09
74466;BME280;62916;50.044;15.938;2023-04-19T08:12:20;99258.48;;;20.33;56.02
74466;BME280;62916;50.044;15.938;2023-04-19T08:15:08;99260.23;;;20.32;56.02
74466;BME280;62916;50.044;15.938;2023-04-19T08:17:59;99254.61;;;20.31;56.08
74466;BME280;62916;50.044;15.938;2023-04-19T08:20:30;99251.13;;;20.31;56.05
74466;BME280;62916;50.044;15.938;2023-04-19T08:23:01;99248.05;;;20.30;55.99
74466;BME280;62916;50.044;15.938;2023-04-19T08:25:47;99241.39;;;20.28;55.95
74466;BME280;62916;50.044;15.938;2023-04-19T08:28:17;99242.91;;;20.31;55.94
74466;BME280;62916;50.044;15.938;2023-04-19T08:30:48;99241.44;;;20.31;56.00
74466;BME280;62916;50.044;15.938;2023-04-19T08:33:19;99242.93;;;20.32;55.99
74466;BME280;62916;50.044;15.938;2023-04-19T08:35:51;99242.58;;;20.33;55.92
74466;BME280;62916;50.044;15.938;2023-04-19T08:38:21;99241.48;;;20.32;55.86
74466;BME280;62916;50.044;15.938;2023-04-19T08:40:53;99240.14;;;20.32;55.81
74466;BME280;62916;50.044;15.938;2023-04-19T08:43:25;99235.15;;;20.30;55.75
74466;BME280;62916;50.044;15.938;2023-04-19T08:46:03;99229.80;;;20.30;55.82
74466;BME280;62916;50.044;15.938;2023-04-19T08:48:35;99230.45;;;20.28;55.74
74466;BME280;62916;50.044;15.938;2023-04-19T08:51:07;99229.55;;;20.28;55.77
74466;BME280;62916;50.044;15.938;2023-04-19T08:53:38;99229.66;;;20.29;55.81
74466;BME280;62916;50.044;15.938;2023-04-19T08:56:10;99231.35;;;20.29;55.74
74466;BME280;62916;50.044;15.938;2023-04-19T08:58:52;99231.52;;;20.29;55.85
74466;BME280;62916;50.044;15.938;2023-04-19T09:01:43;99230.84;;;20.29;55.75
74466;BME280;62916;50.044;15.938;2023-04-19T09:04:14;99232.39;;;20.30;55.68
74466;BME280;62916;50.044;15.938;2023-04-19T09:07:04;99225.09;;;20.29;55.62
74466;BME280;62916;50.044;15.938;2023-04-19T09:09:36;99222.52;;;20.28;55.58
74466;BME280;62916;50.044;15.938;2023-04-19T09:12:30;99221.52;;;20.27;55.56
74466;BME280;62916;50.044;15.938;2023-04-19T09:15:04;99218.80;;;20.26;55.48
74466;BME280;62916;50.044;15.938;2023-04-19T09:17:38;99221.52;;;20.25;55.45
74466;BME280;62916;50.044;15.938;2023-04-19T09:20:10;99219.23;;;20.25;55.60
74466;BME280;62916;50.044;15.938;2023-04-19T09:22:41;99223.14;;;20.24;55.63
74466;BME280;62916;50.044;15.938;2023-04-19T09:25:24;99218.52;;;20.24;55.57
74466;BME280;62916;50.044;15.938;2023-04-19T09:28:09;99212.41;;;20.22;55.55
74466;BME280;62916;50.044;15.938;2023-04-19T09:30:41;99211.91;;;20.21;55.41
74466;BME280;62916;50.044;15.938;2023-04-19T09:33:36;99209.61;;;20.21;55.57
74466;BME280;62916;50.044;15.938;2023-04-19T09:36:09;99208.61;;;20.20;55.57
74466;BME280;62916;50.044;15.938;2023-04-19T09:38:49;99206.15;;;20.19;55.53
74466;BME280;62916;50.044;15.938;2023-04-19T09:41:19;99204.05;;;20.18;55.46
74466;BME280;62916;50.044;15.938;2023-04-19T09:43:50;99205.67;;;20.18;55.54
74466;BME280;62916;50.044;15.938;2023-04-19T09:46:35;99198.58;;;20.18;55.41
74466;BME280;62916;50.044;15.938;2023-04-19T09:49:20;99198.41;;;20.18;55.48
74466;BME280;62916;50.044;15.938;2023-04-19T09:52:13;99199.29;;;20.16;55.42
74466;BME280;62916;50.044;15.938;2023-04-19T09:54:45;99196.10;;;20.15;55.39
74466;BME280;62916;50.044;15.938;2023-04-19T09:57:18;99191.69;;;20.14;55.45
74466;BME280;62916;50.044;15.938;2023-04-19T09:59:49;99188.73;;;20.13;55.41
74466;BME280;62916;50.044;15.938;2023-04-19T10:02:20;99189.48;;;20.12;55.39
74466;BME280;62916;50.044;15.938;2023-04-19T10:04:52;99182.19;;;20.11;55.45
74466;BME280;62916;50.044;15.938;2023-04-19T10:07:45;99182.20;;;20.10;55.51
74466;BME280;62916;50.044;15.938;2023-04-19T10:10:17;99176.21;;;20.06;55.45
74466;BME280;62916;50.044;15.938;2023-04-19T10:13:10;99175.64;;;20.09;55.57
74466;BME280;62916;50.044;15.938;2023-04-19T10:15:50;99172.27;;;20.08;55.39
74466;BME280;62916;50.044;15.938;2023-04-19T10:18:33;99174.09;;;20.08;55.41
74466;BME280;62916;50.044;15.938;2023-04-19T10:21:07;99175.67;;;20.07;55.47
74466;BME280;62916;50.044;15.938;2023-04-19T10:23:40;99174.34;;;20.06;55.33
74466;BME280;62916;50.044;15.938;2023-04-19T10:26:11;99171.19;;;20.06;55.44
74466;BME280;62916;50.044;15.938;2023-04-19T10:28:43;99168.34;;;20.05;55.42
74466;BME280;62916;50.044;15.938;2023-04-19T10:31:14;99168.60;;;20.04;55.39
74466;BME280;62916;50.044;15.938;2023-04-19T10:33:45;99164.23;;;20.04;55.36
74466;BME280;62916;50.044;15.938;2023-04-19T10:36:17;99166.61;;;20.03;55.39
74466;BME280;62916;50.044;15.938;2023-04-19T10:38:49;99166.40;;;20.02;55.35
74466;BME280;62916;50.044;15.938;2023-04-19T10:41:22;99165.46;;;20.01;55.37
74466;BME280;62916;50.044;15.938;2023-04-19T10:44:10;99165.98;;;20.01;55.45
74466;BME280;62916;50.044;15.938;2023-04-19T10:46:41;99169.72;;;20.00;55.53
74466;BME280;62916;50.044;15.938;2023-04-19T10:49:12;99164.52;;;20.01;55.42
74466;BME280;62916;50.044;15.938;2023-04-19T10:51:48;99161.27;;;20.00;55.43
74466;BME280;62916;50.044;15.938;2023-04-19T10:54:28;99165.18;;;20.01;55.45
74466;BME280;62916;50.044;15.938;2023-04-19T10:57:04;99163.67;;;19.95;55.58
74466;BME280;62916;50.044;15.938;2023-04-19T10:59:35;99169.58;;;19.98;55.42
74466;BME280;62916;50.044;15.938;2023-04-19T11:02:26;99163.64;;;19.97;55.45
74466;BME280;62916;50.044;15.938;2023-04-19T11:05:02;99161.54;;;19.98;55.45
74466;BME280;62916;50.044;15.938;2023-04-19T11:07:41;99162.43;;;19.98;55.43
74466;BME280;62916;50.044;15.938;2023-04-19T11:10:11;99163.50;;;19.98;55.40
74466;BME280;62916;50.044;15.938;2023-04-19T11:12:45;99164.63;;;19.98;55.46
74466;BME280;62916;50.044;15.938;2023-04-19T11:15:16;99165.56;;;19.99;55.45
74466;BME280;62916;50.044;15.938;2023-04-19T11:17:51;99161.62;;;19.99;55.42
74466;BME280;62916;50.044;15.938;2023-04-19T11:20:37;99155.65;;;19.99;55.69
74466;BME280;62916;50.044;15.938;2023-04-19T11:23:16;99148.09;;;20.00;55.46
74466;BME280;62916;50.044;15.938;2023-04-19T11:25:47;99152.13;;;20.01;55.43
74466;BME280;62916;50.044;15.938;2023-04-19T11:28:21;99158.37;;;20.01;55.38
74466;BME280;62916;50.044;15.938;2023-04-19T11:30:52;99160.85;;;20.01;55.40
74466;BME280;62916;50.044;15.938;2023-04-19T11:33:24;99154.16;;;20.01;55.24
74466;BME280;62916;50.044;15.938;2023-04-19T11:35:56;99153.73;;;20.00;55.28
74466;BME280;62916;50.044;15.938;2023-04-19T11:38:29;99149.59;;;19.98;55.28
74466;BME280;62916;50.044;15.938;2023-04-19T11:41:01;99153.32;;;19.97;55.21
74466;BME280;62916;50.044;15.938;2023-04-19T11:43:36;99148.16;;;19.96;55.29
74466;BME280;62916;50.044;15.938;2023-04-19T11:46:09;99148.52;;;19.95;55.16
74466;BME280;62916;50.044;15.938;2023-04-19T11:48:50;99147.14;;;19.95;55.20
74466;BME280;62916;50.044;15.938;2023-04-19T11:51:22;99146.77;;;19.94;55.37
74466;BME280;62916;50.044;15.938;2023-04-19T11:53:53;99148.05;;;19.95;55.27
74466;BME280;62916;50.044;15.938;2023-04-19T11:56:23;99144.06;;;19.94;55.32
74466;BME280;62916;50.044;15.938;2023-04-19T11:58:57;99139.56;;;19.94;55.19
74466;BME280;62916;50.044;15.938;2023-04-19T12:01:27;99149.15;;;19.93;55.31
74466;BME280;62916;50.044;15.938;2023-04-19T12:03:58;99151.07;;;19.90;55.24
74466;BME280;62916;50.044;15.938;2023-04-19T12:06:31;99147.88;;;19.90;55.21
74466;BME280;62916;50.044;15.938;2023-04-19T12:09:07;99146.31;;;19.89;55.22
74466;BME280;62916;50.044;15.938;2023-04-19T12:11:46;99143.86;;;19.88;55.25
74466;BME280;62916;50.044;15.938;2023-04-19T12:14:20;99144.83;;;19.87;55.21
74466;BME280;62916;50.044;15.938;2023-04-19T12:17:09;99145.84;;;19.86;55.30
74466;BME280;62916;50.044;15.938;2023-04-19T12:19:44;99146.75;;;19.86;55.45
74466;BME280;62916;50.044;15.938;2023-04-19T12:22:16;99140.48;;;19.85;55.36
74466;BME280;62916;50.044;15.938;2023-04-19T12:24:51;99141.21;;;19.85;55.22
74466;BME280;62916;50.044;15.938;2023-04-19T12:27:22;99139.59;;;19.85;55.36
74466;BME280;62916;50.044;15.938;2023-04-19T12:29:54;99140.77;;;19.84;55.30
74466;BME280;62916;50.044;15.938;2023-04-19T12:32:25;99138.04;;;19.84;55.45
74466;BME280;62916;50.044;15.938;2023-04-19T12:34:57;99130.98;;;19.85;55.31
74466;BME280;62916;50.044;15.938;2023-04-19T12:37:28;99134.48;;;19.84;55.27
74466;BME280;62916;50.044;15.938;2023-04-19T12:39:58;99133.45;;;19.83;55.22
74466;BME280;62916;50.044;15.938;2023-04-19T12:42:29;99129.07;;;19.82;55.21
74466;BME280;62916;50.044;15.938;2023-04-19T12:45:01;99131.67;;;19.81;55.26
74466;BME280;62916;50.044;15.938;2023-04-19T12:47:31;99128.66;;;19.80;55.22
74466;BME280;62916;50.044;15.938;2023-04-19T12:50:03;99124.27;;;19.80;55.26
74466;BME280;62916;50.044;15.938;2023-04-19T12:52:34;99128.08;;;19.79;55.36
74466;BME280;62916;50.044;15.938;2023-04-19T12:55:07;99123.16;;;19.79;55.31
74466;BME280;62916;50.044;15.938;2023-04-19T12:57:38;99122.56;;;19.78;55.28
74466;BME280;62916;50.044;15.938;2023-04-19T13:00:14;99129.67;;;19.77;55.25
74466;BME280;62916;50.044;15.938;2023-04-19T13:02:45;99131.76;;;19.77;55.22
74466;BME280;62916;50.044;15.938;2023-04-19T13:05:17;99130.32;;;19.76;55.28
74466;BME280;62916;50.044;15.938;2023-04-19T13:07:49;99133.30;;;19.76;55.33
74466;BME280;62916;50.044;15.938;2023-04-19T13:10:20;99133.26;;;19.75;55.31
74466;BME280;62916;50.044;15.938;2023-04-19T13:12:51;99132.73;;;19.75;55.29
74466;BME280;62916;50.044;15.938;2023-04-19T13:15:22;99130.38;;;19.74;55.32
74466;BME280;62916;50.044;15.938;2023-04-19T13:17:53;99130.80;;;19.73;55.18